Time;durP1;ratioP1;P1;durP2;ratioP2;P2;SDS_P1;SDS_P2;PMS_P1;PMS_P2;Temp;Humidity;BMP_temperature;BMP_pressure;BME280_temperature;BME280_humidity;BME280_pressure;Samples;Min_cycle;Max_cycle;Signal;HPM_P1;HPM_P2
2024/04/21 00:00:36;;;;;;;6.00;1.50;;;;;;;;;;5261531;27;20411;-80
2024/04/21 00:03:01;;;;;;;5.82;1.30;;;;;;;;;;5276306;27;20034;-80
2024/04/21 00:09:42;;;;;;;;;;;;;;;;;;;;;
2024/04/21 00:16:14;;;;;;;5.90;1.42;;;;;;;;;;5259898;27;20002;-82
2024/04/21 00:19:52;;;;;;;;;;;;;;;;;;;;;
2024/04/21 00:39:09;;;;;;;;;;;;;;;;;;;;;
2024/04/21 00:45:06;;;;;;;;;;;;;;;;;;;;;
2024/04/21 00:47:59;;;;;;;4.60;0.90;;;;;;;;;;5186563;27;20020;-83
2024/04/21 00:50:32;;;;;;;;;;;;;;;;;;5185353;27;20008;-83
2024/04/21 00:54:04;;;;;;;5.13;1.15;;;;;;;;;;5193810;27;20000;-86
2024/04/21 00:57:03;;;;;;;8.25;1.20;;;;;;;;;;5196038;27;20009;-85
2024/04/21 01:00:09;;;;;;;5.53;0.95;;;;;;;;;;5196317;27;20023;-85
2024/04/21 01:19:04;;;;;;;8.02;1.20;;;;;;;;;;5314099;27;20425;-85
2024/04/21 01:21:42;;;;;;;6.20;1.30;;;;;;;;;;5244710;27;20065;-84
2024/04/21 01:24:50;;;;;;;6.70;1.45;;;;;;;;;;5311672;27;20016;-84
2024/04/21 01:27:19;;;;;;;5.13;0.95;;;;;;;;;;5273632;27;19998;-84
2024/04/21 01:29:51;;;;;;;6.35;1.05;;;;;;;;;;5313724;27;20489;-84
2024/04/21 01:32:31;;;;;;;3.70;1.05;;;;;;;;;;5273357;27;20081;-84
2024/04/21 01:35:00;;;;;;;7.97;1.30;;;;;;;;;;5269200;27;20016;-84
2024/04/21 01:37:38;;;;;;;6.70;1.23;;;;;;;;;;5284221;27;19998;-84
2024/04/21 01:40:34;;;;;;;4.22;0.90;;;;;;;;;;5276624;27;20006;-83
2024/04/21 01:42:59;;;;;;;4.82;1.15;;;;;;;;;;5285906;26;20021;-84
2024/04/21 01:45:25;;;;;;;7.35;1.20;;;;;;;;;;5283054;27;19998;-84
2024/04/21 01:47:54;;;;;;;4.32;1.10;;;;;;;;;;5283305;27;20500;-83
2024/04/21 01:50:45;;;;;;;3.65;1.10;;;;;;;;;;5272142;27;20337;-81
2024/04/21 01:56:26;;;;;;;3.13;0.82;;;;;;;;;;5273316;27;20013;-81
2024/04/21 02:01:50;;;;;;;5.22;1.00;;;;;;;;;;5296428;26;20009;-81
2024/04/21 02:04:46;;;;;;;6.82;1.20;;;;;;;;;;5281033;27;20084;-81
2024/04/21 02:07:15;;;;;;;5.95;1.00;;;;;;;;;;5251493;27;20338;-81
2024/04/21 02:09:44;;;;;;;3.85;0.90;;;;;;;;;;5274528;27;20008;-81
2024/04/21 02:12:13;;;;;;;5.45;1.02;;;;;;;;;;5264027;27;20003;-85
2024/04/21 02:14:54;;;;;;;7.03;1.13;;;;;;;;;;5264982;27;19998;-85
2024/04/21 02:17:31;;;;;;;5.38;1.02;;;;;;;;;;5306621;26;20013;-85
2024/04/21 02:20:10;;;;;;;3.63;0.90;;;;;;;;;;5277417;27;20002;-85
2024/04/21 02:22:42;;;;;;;6.55;1.10;;;;;;;;;;5263110;27;20009;-85
2024/04/21 02:25:23;;;;;;;7.07;1.10;;;;;;;;;;5273308;27;20126;-85
2024/04/21 02:31:04;;;;;;;5.32;1.17;;;;;;;;;;5243814;27;20466;-85
2024/04/21 02:33:39;;;;;;;4.55;1.00;;;;;;;;;;5278906;26;20385;-85
2024/04/21 02:36:43;;;;;;;6.30;1.20;;;;;;;;;;5304601;27;20010;-89
2024/04/21 02:39:12;;;;;;;7.53;1.08;;;;;;;;;;5222399;27;20503;-88
2024/04/21 02:41:40;;;;;;;6.38;1.00;;;;;;;;;;5279986;27;20088;-88
2024/04/21 02:44:12;;;;;;;7.32;1.38;;;;;;;;;;5276346;27;19997;-83
2024/04/21 02:46:44;;;;;;;7.13;1.92;;;;;;;;;;5272265;27;20342;-84
2024/04/21 02:49:10;;;;;;;5.40;1.45;;;;;;;;;;5276723;27;20474;-83
2024/04/21 02:51:36;;;;;;;3.50;0.80;;;;;;;;;;5279641;26;20013;-83
2024/04/21 02:54:01;;;;;;;6.10;1.10;;;;;;;;;;5307830;27;20016;-83
2024/04/21 02:57:24;;;;;;;3.90;0.65;;;;;;;;;;5282302;27;19997;-89
2024/04/21 02:59:50;;;;;;;6.32;1.23;;;;;;;;;;5269735;27;20010;-90
2024/04/21 03:02:16;;;;;;;4.55;0.90;;;;;;;;;;5281910;27;20342;-83
2024/04/21 03:47:33;;;;;;;4.65;0.93;;;;;;;;;;459878;25;20524;-83
2024/04/21 03:50:21;;;;;;;11.05;1.35;;;;;;;;;;5277808;27;20006;-84
2024/04/21 03:52:49;;;;;;;2.97;0.88;;;;;;;;;;5276910;27;20009;-84
2024/04/21 03:55:18;;;;;;;4.55;0.90;;;;;;;;;;5261644;27;19999;-84
2024/04/21 03:57:47;;;;;;;4.95;0.80;;;;;;;;;;5281343;27;20346;-84
2024/04/21 04:00:26;;;;;;;5.47;1.00;;;;;;;;;;5252961;27;20075;-84
2024/04/21 04:03:05;;;;;;;4.50;0.90;;;;;;;;;;5281305;26;19998;-84
2024/04/21 04:05:47;;;;;;;;;;;;;;;;;;;;;
2024/04/21 04:08:19;;;;;;;6.32;0.98;;;;;;;;;;5321797;26;19998;-84
2024/04/21 04:11:30;;;;;;;;;;;;;;;;;;;;;
2024/04/21 04:13:55;;;;;;;5.10;0.70;;;;;;;;;;5305702;26;20013;-82
2024/04/21 04:16:24;;;;;;;4.22;0.70;;;;;;;;;;5274758;27;19997;-83
2024/04/21 04:19:25;;;;;;;;;;;;;;;;;;;;;
2024/04/21 04:22:23;;;;;;;3.47;0.80;;;;;;;;;;5314555;26;19997;-83
2024/04/21 04:25:28;;;;;;;1.33;0.57;;;;;;;;;;5278498;27;19998;-83
2024/04/21 04:28:01;;;;;;;3.97;0.70;;;;;;;;;;5259317;27;20006;-84
2024/04/21 04:30:26;;;;;;;;;;;;;;;;;;5289524;26;19997;-83
2024/04/21 04:32:55;;;;;;;2.30;0.52;;;;;;;;;;5318644;26;20257;-83
2024/04/21 04:35:23;;;;;;;3.83;0.80;;;;;;;;;;5294761;27;20366;-83
2024/04/21 04:38:01;;;;;;;4.60;0.80;;;;;;;;;;5284389;27;20016;-83
2024/04/21 04:40:36;;;;;;;4.68;0.90;;;;;;;;;;5283438;27;20008;-84
2024/04/21 04:46:05;;;;;;;5.22;0.70;;;;;;;;;;5317820;26;19996;-83
2024/04/21 04:48:59;;;;;;;2.55;0.60;;;;;;;;;;5290099;26;20001;-83
2024/04/21 04:51:28;;;;;;;1.95;0.40;;;;;;;;;;5278922;27;20002;-84
2024/04/21 04:54:06;;;;;;;6.30;0.80;;;;;;;;;;5287457;26;19997;-84
2024/04/21 04:56:54;;;;;;;5.05;1.00;;;;;;;;;;5313898;27;20006;-84
2024/04/21 04:59:21;;;;;;;3.72;0.50;;;;;;;;;;5269078;27;20079;-84
2024/04/21 05:01:49;;;;;;;4.15;0.68;;;;;;;;;;5282746;27;20002;-84
2024/04/21 05:04:46;;;;;;;3.88;0.93;;;;;;;;;;5313276;27;20009;-84
2024/04/21 05:07:35;;;;;;;3.45;0.88;;;;;;;;;;5279321;26;19999;-88
2024/04/21 05:10:16;;;;;;;;;;;;;;;;;;;;;
2024/04/21 05:12:42;;;;;;;3.60;1.02;;;;;;;;;;5175229;27;20028;-87
2024/04/21 05:15:19;;;;;;;6.00;0.88;;;;;;;;;;5172662;27;20715;-88
2024/04/21 05:17:47;;;;;;;2.72;0.50;;;;;;;;;;5148939;27;20016;-88
2024/04/21 05:20:28;;;;;;;3.50;0.80;;;;;;;;;;5180328;27;20000;-88
2024/04/21 05:23:09;;;;;;;6.00;0.77;;;;;;;;;;5141673;27;20037;-84
2024/04/21 05:25:56;;;;;;;4.13;0.80;;;;;;;;;;5157015;27;20000;-84
2024/04/21 05:28:28;;;;;;;2.92;0.80;;;;;;;;;;5282177;26;20353;-84
2024/04/21 05:30:54;;;;;;;2.50;0.63;;;;;;;;;;5313021;26;20453;-84
2024/04/21 05:33:19;;;;;;;3.38;0.68;;;;;;;;;;5282375;26;20049;-87
2024/04/21 05:36:11;;;;;;;9.65;1.20;;;;;;;;;;5283654;26;20070;-88
2024/04/21 05:38:37;;;;;;;4.50;0.80;;;;;;;;;;5203771;27;20005;-87
2024/04/21 05:41:09;;;;;;;3.83;0.90;;;;;;;;;;5284715;27;20504;-87
2024/04/21 05:43:37;;;;;;;5.57;0.90;;;;;;;;;;5284608;27;20389;-87
2024/04/21 05:46:12;;;;;;;6.22;1.02;;;;;;;;;;5279418;27;20001;-88
2024/04/21 05:48:37;;;;;;;1.88;0.73;;;;;;;;;;5282419;27;20350;-88
2024/04/21 05:51:11;;;;;;;3.80;0.90;;;;;;;;;;5276149;27;20002;-87
2024/04/21 05:53:36;;;;;;;2.08;0.45;;;;;;;;;;5297111;26;20079;-87
2024/04/21 05:56:13;;;;;;;3.28;0.80;;;;;;;;;;5298773;26;20357;-88
2024/04/21 05:58:53;;;;;;;;;;;;;;;;;;;;;
2024/04/21 06:01:25;;;;;;;5.00;0.98;;;;;;;;;;5313194;26;20007;-87
2024/04/21 06:04:00;;;;;;;2.63;0.63;;;;;;;;;;5291483;26;19998;-87
2024/04/21 06:06:26;;;;;;;2.45;0.65;;;;;;;;;;5280347;26;20075;-88
2024/04/21 06:08:57;;;;;;;3.38;0.80;;;;;;;;;;5321759;26;20021;-87
2024/04/21 06:11:39;;;;;;;1.08;0.52;;;;;;;;;;5298330;26;20534;-86
2024/04/21 06:14:16;;;;;;;2.80;0.70;;;;;;;;;;5285393;26;20038;-86
2024/04/21 06:17:00;;;;;;;2.45;0.70;;;;;;;;;;5283996;26;20009;-87
2024/04/21 06:19:34;;;;;;;3.03;0.63;;;;;;;;;;5323703;26;19997;-87
2024/04/21 06:22:02;;;;;;;3.25;0.73;;;;;;;;;;5279665;26;19997;-87
2024/04/21 06:24:36;;;;;;;2.30;0.80;;;;;;;;;;5278172;27;19998;-87
2024/04/21 06:27:02;;;;;;;0.93;0.55;;;;;;;;;;5284929;26;20056;-87
2024/04/21 06:29:36;;;;;;;3.95;0.90;;;;;;;;;;5256861;26;20013;-87
2024/04/21 06:32:03;;;;;;;3.03;1.00;;;;;;;;;;5319559;26;20005;-87
2024/04/21 06:34:32;;;;;;;1.98;1.00;;;;;;;;;;5284491;26;20021;-87
2024/04/21 06:37:00;;;;;;;2.25;0.88;;;;;;;;;;5290364;26;20074;-87
2024/04/21 06:39:59;;;;;;;1.70;0.88;;;;;;;;;;5271445;26;20029;-86
2024/04/21 06:45:10;;;;;;;2.13;0.93;;;;;;;;;;5298059;26;20009;-88
2024/04/21 06:48:21;;;;;;;3.97;0.73;;;;;;;;;;5298703;26;20481;-86
2024/04/21 06:50:52;;;;;;;2.35;0.68;;;;;;;;;;5289422;26;20001;-87
2024/04/21 06:53:19;;;;;;;2.42;0.70;;;;;;;;;;5286402;26;20012;-87
2024/04/21 06:55:45;;;;;;;1.10;0.63;;;;;;;;;;5310697;26;20016;-88
2024/04/21 06:58:55;;;;;;;1.33;0.68;;;;;;;;;;5270517;27;20002;-86
2024/04/21 07:01:31;;;;;;;;;;;;;;;;;;;;;
2024/04/21 07:03:58;;;;;;;1.92;0.73;;;;;;;;;;5312936;26;20006;-86
2024/04/21 07:09:21;;;;;;;1.92;0.70;;;;;;;;;;5267952;26;20536;-87
2024/04/21 07:11:47;;;;;;;2.75;0.60;;;;;;;;;;5311468;26;20045;-87
2024/04/21 07:14:12;;;;;;;1.73;0.50;;;;;;;;;;5268342;27;20480;-85
2024/04/21 07:19:26;;;;;;;1.60;0.55;;;;;;;;;;5300497;26;20002;-87
2024/04/21 07:21:57;;;;;;;4.10;1.00;;;;;;;;;;5270399;27;20101;-87
2024/04/21 07:24:24;;;;;;;2.90;0.63;;;;;;;;;;5279266;26;20088;-87
2024/04/21 07:26:50;;;;;;;1.60;0.57;;;;;;;;;;5289608;27;20009;-87
2024/04/21 07:29:17;;;;;;;2.58;0.52;;;;;;;;;;5317770;26;20105;-86
2024/04/21 07:31:48;;;;;;;1.88;0.50;;;;;;;;;;5277628;27;20029;-87
2024/04/21 07:34:50;;;;;;;;;;;;;;;;;;;;;
2024/04/21 07:37:41;;;;;;;5.15;0.50;;;;;;;;;;5303104;26;19998;-87
2024/04/21 07:40:20;;;;;;;2.45;0.60;;;;;;;;;;5291680;26;20005;-87
2024/04/21 07:42:47;;;;;;;1.63;0.47;;;;;;;;;;5305833;26;20002;-83
2024/04/21 07:45:14;;;;;;;1.25;0.40;;;;;;;;;;5269696;27;20005;-84
2024/04/21 07:47:39;;;;;;;2.33;0.40;;;;;;;;;;5280640;26;20002;-84
2024/04/21 07:50:15;;;;;;;2.22;0.60;;;;;;;;;;5294114;27;20017;-83
2024/04/21 07:52:45;;;;;;;2.35;0.68;;;;;;;;;;5281211;26;20081;-88
2024/04/21 07:55:25;;;;;;;3.42;0.85;;;;;;;;;;5272470;27;20001;-87
2024/04/21 07:58:01;;;;;;;3.35;0.68;;;;;;;;;;5280258;26;20009;-87
2024/04/21 08:00:34;;;;;;;5.05;0.98;;;;;;;;;;5281546;27;20453;-87
2024/04/21 08:03:26;;;;;;;3.03;0.85;;;;;;;;;;5279572;26;20001;-88
2024/04/21 08:05:56;;;;;;;6.72;1.20;;;;;;;;;;5275314;27;20037;-87
2024/04/21 08:08:21;;;;;;;3.70;1.10;;;;;;;;;;5279574;26;20045;-87
2024/04/21 08:11:01;;;;;;;8.15;1.15;;;;;;;;;;5281522;26;20001;-87
2024/04/21 08:13:27;;;;;;;5.82;1.20;;;;;;;;;;5280742;26;20532;-88
2024/04/21 08:15:55;;;;;;;9.02;1.30;;;;;;;;;;5284268;26;20016;-87
2024/04/21 08:18:39;;;;;;;5.55;1.10;;;;;;;;;;5288038;26;20009;-87
2024/04/21 08:21:04;;;;;;;7.10;1.10;;;;;;;;;;5311490;26;20495;-87
2024/04/21 08:23:30;;;;;;;7.78;1.20;;;;;;;;;;5278696;26;20024;-87
2024/04/21 08:26:57;;;;;;;4.95;1.00;;;;;;;;;;5310262;26;20016;-86
2024/04/21 08:29:25;;;;;;;6.90;1.30;;;;;;;;;;5228432;27;20012;-87
2024/04/21 08:31:57;;;;;;;5.35;1.15;;;;;;;;;;5284536;27;20009;-87
2024/04/21 08:34:39;;;;;;;5.85;1.30;;;;;;;;;;5279288;27;20010;-85
2024/04/21 08:37:46;;;;;;;7.93;1.50;;;;;;;;;;5217467;27;20379;-87
2024/04/21 08:40:30;;;;;;;;;;;;;;;;;;;;;
2024/04/21 08:43:10;;;;;;;7.20;1.88;;;;;;;;;;5218708;27;19995;-86
2024/04/21 08:45:45;;;;;;;6.93;1.60;;;;;;;;;;5189645;27;20003;-86
2024/04/21 08:48:36;;;;;;;7.13;1.65;;;;;;;;;;5199576;27;20010;-85
2024/04/21 08:54:22;;;;;;;6.18;1.60;;;;;;;;;;5200980;27;20570;-86
2024/04/21 08:59:57;;;;;;;7.38;1.85;;;;;;;;;;5186900;27;20021;-86
2024/04/21 09:02:37;;;;;;;7.38;1.73;;;;;;;;;;5134940;27;20001;-87
2024/04/21 09:09:21;;;;;;;;;;;;;;;;;;;;;
2024/04/21 09:12:24;;;;;;;7.43;2.30;;;;;;;;;;5192628;27;20004;-87
2024/04/21 09:15:06;;;;;;;6.05;2.08;;;;;;;;;;5156899;27;20096;-87
2024/04/21 09:23:56;;;;;;;5.35;1.90;;;;;;;;;;5169618;27;20123;-86
2024/04/21 09:26:27;;;;;;;6.35;1.95;;;;;;;;;;5169544;27;20004;-86
2024/04/21 09:28:54;;;;;;;5.97;1.90;;;;;;;;;;5166461;27;20004;-86
2024/04/21 09:31:20;;;;;;;6.50;1.70;;;;;;;;;;5185964;27;20004;-87
2024/04/21 09:33:51;;;;;;;9.18;1.90;;;;;;;;;;5232403;27;20010;-86
2024/04/21 09:36:24;;;;;;;8.05;1.73;;;;;;;;;;5298892;26;20004;-86
2024/04/21 09:38:59;;;;;;;7.85;2.00;;;;;;;;;;5269592;26;20006;-87
2024/04/21 09:41:35;;;;;;;6.10;1.80;;;;;;;;;;5270553;27;20062;-86
2024/04/21 09:44:01;;;;;;;7.95;1.48;;;;;;;;;;5262041;27;19998;-87
2024/04/21 09:46:30;;;;;;;7.10;1.50;;;;;;;;;;5276745;26;20005;-87
2024/04/21 09:48:59;;;;;;;4.35;1.30;;;;;;;;;;5273098;26;19997;-86
2024/04/21 09:51:28;;;;;;;7.40;1.70;;;;;;;;;;5274667;27;20534;-86
2024/04/21 09:53:56;;;;;;;5.57;1.73;;;;;;;;;;5267361;26;20448;-87
2024/04/21 09:56:29;;;;;;;6.43;1.45;;;;;;;;;;5312257;26;20001;-87
2024/04/21 09:58:55;;;;;;;5.30;1.55;;;;;;;;;;5274351;26;20002;-87
2024/04/21 10:01:33;;;;;;;4.15;1.38;;;;;;;;;;5274980;27;20472;-87
2024/04/21 10:04:19;;;;;;;5.72;1.80;;;;;;;;;;5275180;26;20013;-82
2024/04/21 10:06:55;;;;;;;7.40;1.60;;;;;;;;;;5279553;27;20462;-82
2024/04/21 10:09:25;;;;;;;3.92;1.45;;;;;;;;;;5301807;26;20008;-82
2024/04/21 10:12:07;;;;;;;3.67;1.60;;;;;;;;;;5283059;27;20002;-82
2024/04/21 10:14:33;;;;;;;4.80;1.70;;;;;;;;;;5279074;27;20369;-82
2024/04/21 10:16:59;;;;;;;4.97;1.75;;;;;;;;;;5273491;27;20029;-82
2024/04/21 10:19:25;;;;;;;5.65;2.30;;;;;;;;;;5272950;27;20020;-81
2024/04/21 10:21:51;;;;;;;4.63;1.98;;;;;;;;;;5280042;27;20002;-82
2024/04/21 10:24:18;;;;;;;4.38;1.90;;;;;;;;;;5276697;26;20002;-82
2024/04/21 10:26:44;;;;;;;5.88;1.90;;;;;;;;;;5298293;26;20025;-82
2024/04/21 10:29:14;;;;;;;4.78;2.03;;;;;;;;;;5321577;26;20005;-82
2024/04/21 10:31:50;;;;;;;4.97;2.03;;;;;;;;;;5283906;27;20053;-82
2024/04/21 10:34:21;;;;;;;6.25;1.95;;;;;;;;;;5277465;26;20014;-82
2024/04/21 10:36:52;;;;;;;6.40;2.20;;;;;;;;;;5305536;26;20001;-81
2024/04/21 10:39:24;;;;;;;4.18;2.10;;;;;;;;;;5274302;27;20449;-82
2024/04/21 10:41:54;;;;;;;4.65;2.00;;;;;;;;;;5279519;27;20349;-82
2024/04/21 10:44:21;;;;;;;4.60;2.13;;;;;;;;;;5264606;26;20368;-82
2024/04/21 10:46:46;;;;;;;4.18;2.05;;;;;;;;;;5264496;27;19998;-83
2024/04/21 10:49:17;;;;;;;4.53;2.50;;;;;;;;;;5244280;27;20012;-82
2024/04/21 10:51:50;;;;;;;5.07;1.90;;;;;;;;;;5254286;27;20010;-81
2024/04/21 10:54:24;;;;;;;4.50;1.90;;;;;;;;;;5249740;27;20038;-83
2024/04/21 10:57:01;;;;;;;4.13;2.03;;;;;;;;;;5289345;26;20002;-82
2024/04/21 11:03:37;;;;;;;;;;;;;;;;;;;;;
2024/04/21 11:06:09;;;;;;;4.65;1.90;;;;;;;;;;5297048;26;19998;-82
2024/04/21 11:08:37;;;;;;;3.35;1.70;;;;;;;;;;5270802;26;19998;-82
2024/04/21 11:11:20;;;;;;;3.55;1.70;;;;;;;;;;5278258;26;20476;-82
2024/04/21 11:15:04;;;;;;;;;;;;;;;;;;;;;
2024/04/21 11:17:59;;;;;;;2.65;1.65;;;;;;;;;;5151564;27;20004;-82
2024/04/21 11:20:38;;;;;;;;;;;;;;;;;;;;;
2024/04/21 11:23:31;;;;;;;5.57;2.20;;;;;;;;;;5281238;26;20462;-82
2024/04/21 11:25:57;;;;;;;3.93;1.80;;;;;;;;;;5271460;26;20005;-82
2024/04/21 11:28:30;;;;;;;6.30;1.75;;;;;;;;;;5281301;27;19998;-82
2024/04/21 11:31:36;;;;;;;4.22;2.03;;;;;;;;;;5287991;27;20434;-82
2024/04/21 11:34:10;;;;;;;2.97;1.80;;;;;;;;;;5270039;27;20330;-82
2024/04/21 11:36:40;;;;;;;4.32;2.00;;;;;;;;;;5301767;26;20010;-82
2024/04/21 11:39:06;;;;;;;5.40;2.30;;;;;;;;;;5286378;26;20013;-82
2024/04/21 11:42:10;;;;;;;5.07;2.13;;;;;;;;;;5280348;26;20002;-81
2024/04/21 11:44:38;;;;;;;3.53;2.00;;;;;;;;;;5276257;26;20001;-82
2024/04/21 11:47:04;;;;;;;4.35;2.30;;;;;;;;;;5274969;27;20362;-81
2024/04/21 11:49:39;;;;;;;3.70;1.90;;;;;;;;;;5274913;27;20005;-82
2024/04/21 11:52:20;;;;;;;4.07;2.38;;;;;;;;;;5281623;26;20464;-82
2024/04/21 11:54:52;;;;;;;3.70;2.17;;;;;;;;;;5280802;26;20011;-82
2024/04/21 11:57:18;;;;;;;5.30;2.35;;;;;;;;;;5282473;27;20327;-82
2024/04/21 12:00:03;;;;;;;3.92;2.03;;;;;;;;;;5280864;27;20017;-82
2024/04/21 12:02:28;;;;;;;3.85;1.98;;;;;;;;;;5285453;26;19997;-82
2024/04/21 12:04:58;;;;;;;4.47;2.00;;;;;;;;;;5279776;26;20013;-81
2024/04/21 12:07:24;;;;;;;3.30;2.13;;;;;;;;;;5278214;27;20010;-81
2024/04/21 12:09:49;;;;;;;3.75;2.00;;;;;;;;;;5292028;26;20002;-81
2024/04/21 12:12:15;;;;;;;4.63;2.35;;;;;;;;;;5281142;27;19998;-81
2024/04/21 12:14:47;;;;;;;4.72;2.40;;;;;;;;;;5280198;27;20002;-81
2024/04/21 12:17:18;;;;;;;5.07;2.22;;;;;;;;;;5270683;26;19997;-82
2024/04/21 12:19:44;;;;;;;4.60;2.40;;;;;;;;;;5281456;27;20006;-82
2024/04/21 12:22:20;;;;;;;3.53;2.10;;;;;;;;;;5280497;26;20082;-82
2024/04/21 12:25:07;;;;;;;5.07;2.05;;;;;;;;;;5275558;27;20002;-81
2024/04/21 12:27:43;;;;;;;;;;;;;;;;;;;;;
2024/04/21 12:30:12;;;;;;;3.15;2.25;;;;;;;;;;5298442;26;20017;-80
2024/04/21 12:32:40;;;;;;;4.63;2.45;;;;;;;;;;5283251;26;20009;-81
2024/04/21 12:35:08;;;;;;;3.40;2.03;;;;;;;;;;5291272;26;20002;-82
2024/04/21 12:37:57;;;;;;;4.40;2.17;;;;;;;;;;5283555;26;20341;-81
2024/04/21 12:40:23;;;;;;;4.03;2.20;;;;;;;;;;5308215;26;20015;-81
2024/04/21 12:42:51;;;;;;;4.13;2.13;;;;;;;;;;5313921;26;20016;-81
2024/04/21 12:45:17;;;;;;;3.33;2.08;;;;;;;;;;5280989;26;20008;-82
2024/04/21 12:48:23;;;;;;;4.10;2.13;;;;;;;;;;5280579;26;20013;-82
2024/04/21 12:51:28;;;;;;;;;;;;;;;;;;;;;
2024/04/21 12:54:22;;;;;;;3.72;2.15;;;;;;;;;;5293978;26;20008;-81
2024/04/21 12:56:58;;;;;;;;;;;;;;;;;;;;;
2024/04/21 12:59:51;;;;;;;3.20;1.95;;;;;;;;;;5310997;26;20001;-81
2024/04/21 13:03:12;;;;;;;2.80;1.92;;;;;;;;;;5276869;26;20335;-81
2024/04/21 13:05:56;;;;;;;;;;;;;;;;;;;;;
2024/04/21 13:08:48;;;;;;;3.20;2.00;;;;;;;;;;5318600;26;19997;-81
2024/04/21 13:11:21;;;;;;;4.88;2.22;;;;;;;;;;5273709;26;20014;-82
2024/04/21 13:13:51;;;;;;;4.45;2.00;;;;;;;;;;5238381;26;20346;-81
2024/04/21 13:16:25;;;;;;;3.55;1.65;;;;;;;;;;5269523;26;19994;-82
2024/04/21 13:19:06;;;;;;;;;;;;;;;;;;;;;
2024/04/21 13:21:59;;;;;;;2.75;1.60;;;;;;;;;;5302335;26;20013;-82
2024/04/21 13:24:32;;;;;;;2.00;1.40;;;;;;;;;;5261562;26;20044;-82
2024/04/21 13:30:04;;;;;;;4.43;1.63;;;;;;;;;;5211903;26;20416;-82
2024/04/21 13:32:29;;;;;;;2.25;1.45;;;;;;;;;;5273257;26;20009;-83
2024/04/21 13:34:58;;;;;;;3.08;1.45;;;;;;;;;;5230438;27;20013;-83
2024/04/21 13:37:51;;;;;;;;;;;;;;;;;;;;;
2024/04/21 13:40:55;;;;;;;2.75;1.80;;;;;;;;;;5289567;26;19997;-84
2024/04/21 13:43:55;;;;;;;2.80;1.50;;;;;;;;;;5250824;27;20050;-81
2024/04/21 13:46:44;;;;;;;3.00;1.58;;;;;;;;;;5251535;26;20143;-80
2024/04/21 13:50:21;;;;;;;;;;;;;;;;;;;;;
2024/04/21 13:52:36;;;;;;;2.33;1.30;;;;;;;;;;5242352;26;20440;-82
2024/04/21 13:55:11;;;;;;;2.20;1.40;;;;;;;;;;5261536;27;20016;-80
2024/04/21 13:57:42;;;;;;;3.05;1.30;;;;;;;;;;5259500;27;20010;-80
2024/04/21 14:00:09;;;;;;;2.45;1.27;;;;;;;;;;5254964;27;19994;-81
2024/04/21 14:02:34;;;;;;;2.15;1.40;;;;;;;;;;5251708;26;20009;-83
2024/04/21 14:05:03;;;;;;;2.55;1.30;;;;;;;;;;5263449;26;20001;-80
2024/04/21 14:07:28;;;;;;;2.63;1.40;;;;;;;;;;5260436;26;20524;-80
2024/04/21 14:09:57;;;;;;;3.63;1.45;;;;;;;;;;5267894;26;20009;-80
2024/04/21 14:12:26;;;;;;;2.95;1.40;;;;;;;;;;5279479;26;20016;-81
2024/04/21 14:14:51;;;;;;;3.45;1.35;;;;;;;;;;5283922;27;20016;-81
2024/04/21 14:17:19;;;;;;;3.03;1.33;;;;;;;;;;5293450;26;20001;-81
2024/04/21 14:19:45;;;;;;;2.40;1.40;;;;;;;;;;5259973;26;20477;-79
2024/04/21 14:22:10;;;;;;;2.55;1.20;;;;;;;;;;5250429;27;20010;-82
2024/04/21 14:24:36;;;;;;;2.55;1.60;;;;;;;;;;5255668;26;20006;-81
2024/04/21 14:27:04;;;;;;;2.85;1.60;;;;;;;;;;5263826;26;20056;-82
2024/04/21 14:29:31;;;;;;;3.35;1.85;;;;;;;;;;5264008;26;20021;-81
2024/04/21 14:31:59;;;;;;;4.75;1.58;;;;;;;;;;5252824;27;20040;-81
2024/04/21 14:34:26;;;;;;;3.25;1.52;;;;;;;;;;5283735;26;20005;-82
2024/04/21 14:36:59;;;;;;;2.33;1.58;;;;;;;;;;5254995;26;20539;-80
2024/04/21 14:39:25;;;;;;;2.42;1.35;;;;;;;;;;5258305;27;19994;-79
2024/04/21 14:42:00;;;;;;;;;;;;;;;;;;;;;
2024/04/21 14:44:26;;;;;;;2.20;1.40;;;;;;;;;;5292038;26;19998;-80
2024/04/21 14:46:51;;;;;;;1.70;1.10;;;;;;;;;;5258410;26;20021;-81
2024/04/21 14:49:17;;;;;;;3.10;1.30;;;;;;;;;;5267205;27;20006;-80
2024/04/21 14:51:44;;;;;;;2.00;1.20;;;;;;;;;;5288331;26;20016;-80
2024/04/21 14:54:12;;;;;;;4.13;1.30;;;;;;;;;;5276290;26;20861;-79
2024/04/21 14:56:37;;;;;;;2.72;1.10;;;;;;;;;;5253263;26;20474;-81
2024/04/21 14:59:03;;;;;;;1.63;1.13;;;;;;;;;;5254286;27;20008;-80
2024/04/21 15:01:28;;;;;;;3.47;1.35;;;;;;;;;;5250401;27;19998;-80
2024/04/21 15:04:05;;;;;;;1.70;1.10;;;;;;;;;;5256473;27;20066;-80
2024/04/21 15:06:30;;;;;;;1.90;1.20;;;;;;;;;;5271328;26;20042;-80
2024/04/21 15:08:59;;;;;;;2.25;1.15;;;;;;;;;;5260598;26;20002;-80
2024/04/21 15:11:27;;;;;;;2.28;1.30;;;;;;;;;;5286987;26;20536;-81
2024/04/21 15:13:52;;;;;;;2.13;1.30;;;;;;;;;;5247755;26;20071;-81
2024/04/21 15:16:18;;;;;;;2.13;1.20;;;;;;;;;;5249363;27;20421;-80
2024/04/21 15:18:43;;;;;;;1.80;1.20;;;;;;;;;;5246402;26;20002;-81
2024/04/21 15:21:10;;;;;;;2.75;1.10;;;;;;;;;;5256677;27;20010;-81
2024/04/21 15:23:35;;;;;;;2.53;1.42;;;;;;;;;;5247194;27;20101;-80
2024/04/21 15:26:03;;;;;;;2.50;1.40;;;;;;;;;;5237839;27;20472;-81
2024/04/21 15:28:30;;;;;;;3.42;1.70;;;;;;;;;;5254393;26;20009;-82
2024/04/21 15:30:57;;;;;;;2.75;1.30;;;;;;;;;;5254491;26;20548;-83
2024/04/21 15:33:24;;;;;;;3.60;1.42;;;;;;;;;;5247340;26;20032;-80
2024/04/21 15:36:00;;;;;;;2.95;1.50;;;;;;;;;;5280957;26;20006;-80
2024/04/21 15:38:26;;;;;;;2.08;1.30;;;;;;;;;;5257948;26;20009;-82
2024/04/21 15:41:00;;;;;;;2.65;1.52;;;;;;;;;;5243315;27;20003;-80
2024/04/21 15:43:25;;;;;;;3.35;1.38;;;;;;;;;;5245174;27;20724;-80
2024/04/21 15:45:51;;;;;;;1.98;1.25;;;;;;;;;;5248517;26;20006;-83
2024/04/21 15:48:17;;;;;;;2.92;1.50;;;;;;;;;;5243036;27;20061;-80
2024/04/21 15:50:42;;;;;;;3.92;1.60;;;;;;;;;;5252089;27;20431;-81
2024/04/21 15:53:07;;;;;;;2.33;1.30;;;;;;;;;;5245341;27;20013;-83
2024/04/21 15:55:33;;;;;;;3.13;1.40;;;;;;;;;;5231797;27;19999;-79
2024/04/21 15:58:06;;;;;;;2.50;1.30;;;;;;;;;;5239847;27;20017;-82
2024/04/21 16:00:33;;;;;;;;;;;;;;;;;;5254706;27;20002;-83
2024/04/21 16:03:14;;;;;;;;;;;;;;;;;;;;;
2024/04/21 16:05:43;;;;;;;1.65;1.17;;;;;;;;;;5289548;26;20017;-85
2024/04/21 16:08:08;;;;;;;2.85;1.35;;;;;;;;;;5268970;26;20345;-84
2024/04/21 16:10:44;;;;;;;1.40;0.95;;;;;;;;;;5247848;27;20005;-85
2024/04/21 16:13:11;;;;;;;2.25;1.30;;;;;;;;;;5244773;27;20428;-83
2024/04/21 16:15:39;;;;;;;2.47;1.13;;;;;;;;;;5275366;27;20041;-82
2024/04/21 16:18:10;;;;;;;1.45;0.90;;;;;;;;;;5270404;26;20683;-82
2024/04/21 16:20:41;;;;;;;2.63;0.95;;;;;;;;;;5302958;26;19997;-82
2024/04/21 16:23:07;;;;;;;1.60;0.80;;;;;;;;;;5269179;26;20013;-81
2024/04/21 16:25:58;;;;;;;;;;;;;;;;;;;;;
2024/04/21 16:28:45;;;;;;;;;;;;;;;;;;;;;
2024/04/21 16:31:21;;;;;;;1.67;1.00;;;;;;;;;;5302829;26;20460;-81
2024/04/21 16:33:49;;;;;;;1.90;1.00;;;;;;;;;;5271489;27;20010;-81
2024/04/21 16:37:08;;;;;;;1.60;0.95;;;;;;;;;;5261941;26;20060;-82
2024/04/21 16:40:51;;;;;;;;;;;;;;;;;;;;;
2024/04/21 16:43:20;;;;;;;1.83;1.10;;;;;;;;;;5225810;26;19998;-81
2024/04/21 16:49:40;;;;;;;2.00;1.20;;;;;;;;;;5222000;27;20016;-81
2024/04/21 16:52:06;;;;;;;1.70;1.15;;;;;;;;;;5234961;27;20009;-81
2024/04/21 16:54:32;;;;;;;1.92;1.00;;;;;;;;;;5301595;27;20010;-83
2024/04/21 16:57:10;;;;;;;2.65;1.50;;;;;;;;;;5291535;26;20080;-82
2024/04/21 16:59:38;;;;;;;2.53;1.65;;;;;;;;;;5308387;27;20024;-82
2024/04/21 17:02:04;;;;;;;3.10;1.60;;;;;;;;;;5268658;27;20014;-83
2024/04/21 17:04:33;;;;;;;3.45;1.50;;;;;;;;;;5269595;27;20016;-83
2024/04/21 17:07:01;;;;;;;2.75;1.45;;;;;;;;;;5275977;27;20021;-82
2024/04/21 17:09:33;;;;;;;2.50;1.40;;;;;;;;;;5275644;27;20079;-83
2024/04/21 17:12:02;;;;;;;4.32;1.60;;;;;;;;;;5275415;27;20076;-82
2024/04/21 17:14:27;;;;;;;2.38;1.40;;;;;;;;;;5250718;26;20006;-83
2024/04/21 17:16:59;;;;;;;2.47;1.48;;;;;;;;;;5293887;26;20021;-82
2024/04/21 17:19:25;;;;;;;4.60;1.60;;;;;;;;;;5255858;26;20001;-83
2024/04/21 17:22:11;;;;;;;2.22;1.35;;;;;;;;;;5252082;27;20370;-82
2024/04/21 17:24:37;;;;;;;2.20;1.50;;;;;;;;;;5247894;27;20003;-81
2024/04/21 17:27:03;;;;;;;2.47;1.50;;;;;;;;;;5290322;26;19997;-82
2024/04/21 17:29:35;;;;;;;2.42;1.55;;;;;;;;;;5247483;26;20083;-83
2024/04/21 17:32:08;;;;;;;3.60;1.40;;;;;;;;;;5255351;27;20001;-83
2024/04/21 17:45:42;;;;;;;;;;;;;;;;;;;;;
2024/04/21 17:51:40;;;;;;;3.47;1.50;;;;;;;;;;5264474;26;20005;-82
2024/04/21 17:57:32;;;;;;;3.03;1.50;;;;;;;;;;5243025;27;20046;-81
2024/04/21 18:00:07;;;;;;;2.50;1.60;;;;;;;;;;5253097;26;20452;-81
2024/04/21 18:03:21;;;;;;;2.80;1.50;;;;;;;;;;5242522;27;20486;-84
2024/04/21 18:05:58;;;;;;;2.80;1.80;;;;;;;;;;5264153;27;20036;-83
2024/04/21 18:08:54;;;;;;;;;;;;;;;;;;;;;
2024/04/21 18:11:37;;;;;;;;;;;;;;;;;;;;;
2024/04/21 18:17:23;;;;;;;3.42;1.27;;;;;;;;;;5300604;26;20006;-81
2024/04/21 18:20:00;;;;;;;2.80;1.23;;;;;;;;;;5276988;26;20003;-84
2024/04/21 18:22:38;;;;;;;2.30;1.40;;;;;;;;;;5298475;26;20327;-82
2024/04/21 18:25:16;;;;;;;2.05;1.30;;;;;;;;;;5284848;27;21335;-82
2024/04/21 18:28:10;;;;;;;2.08;1.40;;;;;;;;;;5266047;27;21060;-83
2024/04/21 18:34:09;;;;;;;2.00;1.23;;;;;;;;;;5273901;27;20080;-81
2024/04/21 18:36:38;;;;;;;2.63;1.50;;;;;;;;;;5275716;27;20334;-83
2024/04/21 18:39:04;;;;;;;1.95;1.30;;;;;;;;;;5268093;27;20474;-82
2024/04/21 18:42:07;;;;;;;2.70;1.55;;;;;;;;;;5272330;27;20002;-82
2024/04/21 18:44:41;;;;;;;3.58;1.70;;;;;;;;;;5311195;26;20457;-82